Terminal Aerodrome Forecast
Issued by NWS Sterling, VA

Home | Current Version | Previous Version | Text Only | Print | Product List | Glossary On
Versions: 1 2 3 4 5 6 7 8 9 10 11 12 13 14 15 16 17 18 19 20 21 22 23 24 25 26 27 28 29 30 31 32 33 34 35 36 37 38 39 40 41 42 43 44 45 46 47 48 49 50
000
FTUS41 KLWX 161454 AAA
TAFDCA
TAF AMD
KDCA 161454Z 1615/1718 21011G20KT P6SM SCT110
     FM161600 22011G21KT P6SM SCT050 BKN110
     FM161800 22011G20KT P6SM VCTS SCT050CB BKN090
     FM162100 23011G22KT 6SM TSRA SCT030CB OVC045
     FM170000 24007KT P6SM VCTS SCT050CB OVC060
     FM170200 22006KT P6SM OVC050=

USA.gov is the U.S. government's official web portal to all federal, state and local government web resources and services.